Time;durP1;ratioP1;P1;durP2;ratioP2;P2;SDS_P1;SDS_P2;PMS_P1;PMS_P2;Temp;Humidity;BMP_temperature;BMP_pressure;BME280_temperature;BME280_humidity;BME280_pressure;Samples;Min_cycle;Max_cycle;Signal;HPM_P1;HPM_P2
2023/03/30 00:00:38;;;;;;;8.20;5.50;;;9.80;99.90;;;;;;5053975;28;20410;-68
2023/03/30 00:03:04;;;;;;;7.90;6.00;;;9.80;99.90;;;;;;5053689;28;20598;-69
2023/03/30 00:05:30;;;;;;;8.37;5.87;;;9.80;99.90;;;;;;5054091;28;20171;-68
2023/03/30 00:07:56;;;;;;;9.70;7.17;;;9.70;99.90;;;;;;5053523;28;20174;-69
2023/03/30 00:10:22;;;;;;;8.03;5.80;;;9.70;99.90;;;;;;5053921;28;20773;-69
2023/03/30 00:12:49;;;;;;;10.80;6.27;;;9.70;99.90;;;;;;5053718;28;21199;-69
2023/03/30 00:15:17;;;;;;;6.00;5.40;;;9.70;99.90;;;;;;5053403;28;20254;-68
2023/03/30 00:17:43;;;;;;;6.93;6.10;;;9.70;99.90;;;;;;5053712;28;20771;-68
2023/03/30 00:20:10;;;;;;;5.97;5.30;;;9.70;99.90;;;;;;5053345;28;20496;-69
2023/03/30 00:22:40;;;;;;;7.47;6.60;;;9.70;99.90;;;;;;5053634;28;20426;-68
2023/03/30 00:25:09;;;;;;;8.23;6.37;;;9.60;99.90;;;;;;5053474;28;20405;-68
2023/03/30 00:27:36;;;;;;;9.33;6.87;;;9.60;99.90;;;;;;5053737;28;20841;-68
2023/03/30 00:30:03;;;;;;;8.93;6.67;;;9.60;99.90;;;;;;5053381;28;20422;-68
2023/03/30 00:32:29;;;;;;;11.07;7.20;;;9.50;99.90;;;;;;5053238;28;20417;-68
2023/03/30 00:34:54;;;;;;;6.90;6.20;;;9.50;99.90;;;;;;5053140;28;20925;-68
2023/03/30 00:37:20;;;;;;;6.57;5.87;;;9.50;99.90;;;;;;5053269;28;20186;-69
2023/03/30 00:39:46;;;;;;;7.57;6.80;;;9.50;99.90;;;;;;5053442;28;20179;-70
2023/03/30 00:42:16;;;;;;;7.30;6.50;;;9.50;99.90;;;;;;5053440;28;20230;-68
2023/03/30 00:45:16;;;;;;;6.37;5.40;;;9.50;99.90;;;;;;5035828;28;20272;-68
2023/03/30 00:47:55;;;;;;;9.17;6.47;;;9.50;99.90;;;;;;5049720;28;20417;-68
2023/03/30 00:50:26;;;;;;;11.63;6.57;;;9.50;99.90;;;;;;5048709;28;20789;-69
2023/03/30 00:52:55;;;;;;;7.03;5.87;;;9.50;99.90;;;;;;5052971;28;20436;-69
2023/03/30 00:55:25;;;;;;;8.30;6.13;;;9.40;99.90;;;;;;5052755;28;20406;-68
2023/03/30 00:57:51;;;;;;;7.63;6.20;;;9.40;99.90;;;;;;5052811;28;20415;-68
2023/03/30 01:00:18;;;;;;;10.73;5.47;;;9.40;99.90;;;;;;5052780;28;20441;-69
2023/03/30 01:02:49;;;;;;;6.70;6.00;;;9.40;99.90;;;;;;5052768;28;20471;-69
2023/03/30 01:05:14;;;;;;;7.17;6.47;;;9.40;99.90;;;;;;5052624;28;20512;-68
2023/03/30 01:07:42;;;;;;;7.00;5.80;;;9.40;99.90;;;;;;5040581;28;20422;-68
2023/03/30 01:10:09;;;;;;;6.00;5.27;;;9.40;99.90;;;;;;5052668;28;20261;-69
2023/03/30 01:12:35;;;;;;;6.73;6.00;;;9.40;99.90;;;;;;5052627;28;20838;-69
2023/03/30 01:15:01;;;;;;;5.97;5.37;;;9.40;99.90;;;;;;5052350;28;20421;-68
2023/03/30 01:17:48;;;;;;;8.60;6.20;;;9.30;99.90;;;;;;5052349;28;20177;-68
2023/03/30 01:20:16;;;;;;;7.77;6.00;;;9.40;99.90;;;;;;5034621;28;20271;-68
2023/03/30 01:22:57;;;;;;;6.80;6.10;;;9.30;99.90;;;;;;5050834;28;20441;-68
2023/03/30 01:25:50;;;;;;;6.43;5.87;;;9.30;99.90;;;;;;5052813;28;20504;-69
2023/03/30 01:28:22;;;;;;;7.00;5.40;;;9.30;99.90;;;;;;5047277;28;20412;-69
2023/03/30 01:31:26;;;;;;;6.90;5.70;;;9.30;99.90;;;;;;5054165;28;20921;-68
2023/03/30 01:33:59;;;;;;;7.43;6.10;;;9.20;99.90;;;;;;5049692;28;20931;-68
2023/03/30 01:36:56;;;;;;;7.20;6.50;;;9.20;99.90;;;;;;5051762;28;20948;-68
2023/03/30 01:39:46;;;;;;;8.80;6.30;;;9.10;99.90;;;;;;5045478;28;20420;-68
2023/03/30 01:42:26;;;;;;;8.20;5.63;;;9.20;99.90;;;;;;5031160;28;20525;-68
2023/03/30 01:45:19;;;;;;;9.40;6.40;;;9.10;99.90;;;;;;5051761;28;20965;-67
2023/03/30 01:48:00;;;;;;;8.33;6.30;;;9.10;99.90;;;;;;5051617;28;20499;-68
2023/03/30 01:50:35;;;;;;;9.20;5.70;;;9.10;99.90;;;;;;5046014;28;20397;-69
2023/03/30 01:53:33;;;;;;;8.53;5.83;;;9.10;99.90;;;;;;5051564;28;20510;-69
2023/03/30 01:56:09;;;;;;;6.90;6.20;;;9.10;99.90;;;;;;5028233;28;20844;-67
2023/03/30 01:58:45;;;;;;;5.83;5.33;;;9.10;99.90;;;;;;5041909;28;20419;-68
2023/03/30 02:01:16;;;;;;;5.73;5.20;;;9.10;99.90;;;;;;5043109;28;20431;-67
2023/03/30 02:03:45;;;;;;;8.93;5.60;;;9.20;99.90;;;;;;5033114;28;20503;-67
2023/03/30 02:06:16;;;;;;;7.23;6.57;;;9.20;99.90;;;;;;5050764;28;20431;-67
2023/03/30 02:08:43;;;;;;;7.20;6.27;;;9.20;99.90;;;;;;5050761;28;20769;-67
2023/03/30 02:11:08;;;;;;;6.93;5.60;;;9.10;99.90;;;;;;5050708;28;20486;-68
2023/03/30 02:13:36;;;;;;;9.07;6.80;;;9.20;99.90;;;;;;5050976;28;20418;-68
2023/03/30 02:16:24;;;;;;;6.37;5.77;;;9.20;99.90;;;;;;5050025;28;20175;-68
2023/03/30 02:18:50;;;;;;;8.13;6.30;;;9.20;99.90;;;;;;5049854;28;20469;-67
2023/03/30 02:21:16;;;;;;;7.70;6.17;;;9.10;99.90;;;;;;5051071;28;20895;-67
2023/03/30 02:23:45;;;;;;;7.20;6.40;;;9.10;99.90;;;;;;5051107;28;20457;-68
2023/03/30 02:26:11;;;;;;;10.87;5.73;;;9.10;99.90;;;;;;5050782;28;20999;-68
2023/03/30 02:28:37;;;;;;;6.17;5.43;;;9.10;99.90;;;;;;5050954;28;20418;-68
2023/03/30 02:31:03;;;;;;;7.30;5.80;;;9.10;99.90;;;;;;5050531;28;20865;-68
2023/03/30 02:34:04;;;;;;;8.70;5.67;;;9.10;99.90;;;;;;5050554;28;20488;-67
2023/03/30 02:37:00;;;;;;;8.70;6.10;;;9.20;99.90;;;;;;5045170;28;20833;-68
2023/03/30 02:39:38;;;;;;;7.43;5.60;;;9.10;99.90;;;;;;5051074;28;20436;-68
2023/03/30 02:42:18;;;;;;;7.60;5.37;;;9.10;99.90;;;;;;5063500;22;20919;-74
2023/03/30 02:45:04;;;;;;;8.23;5.63;;;9.20;99.90;;;;;;5011973;28;20539;-74
2023/03/30 02:47:59;;;;;;;7.50;5.77;;;9.10;99.90;;;;;;5008943;28;20404;-74
2023/03/30 02:50:43;;;;;;;6.63;6.00;;;9.20;99.90;;;;;;5008239;28;21016;-75
2023/03/30 02:53:30;;;;;;;5.93;5.33;;;9.10;99.90;;;;;;5005959;28;20422;-73
2023/03/30 02:56:10;;;;;;;5.80;5.20;;;9.20;99.90;;;;;;5004839;28;20409;-74
2023/03/30 02:58:49;;;;;;;6.60;5.97;;;9.20;99.90;;;;;;5005949;28;20410;-74
2023/03/30 03:01:24;;;;;;;9.20;5.83;;;9.20;99.90;;;;;;4999215;28;20403;-72
2023/03/30 03:03:53;;;;;;;5.47;4.97;;;9.20;99.90;;;;;;5005517;28;20584;-73
2023/03/30 03:06:19;;;;;;;6.87;5.67;;;9.20;99.90;;;;;;5005848;28;20517;-73
2023/03/30 03:08:48;;;;;;;8.17;4.80;;;9.20;99.90;;;;;;5010942;28;20489;-74
2023/03/30 03:11:14;;;;;;;6.27;5.30;;;9.20;99.90;;;;;;4998534;28;20417;-73
2023/03/30 03:13:41;;;;;;;8.87;5.93;;;9.20;99.90;;;;;;5006093;28;20407;-73
2023/03/30 03:16:11;;;;;;;6.67;5.73;;;9.20;99.90;;;;;;4987826;28;20426;-73
2023/03/30 03:18:43;;;;;;;7.20;4.90;;;9.20;99.90;;;;;;5006097;28;20775;-74
2023/03/30 03:21:10;;;;;;;5.33;4.83;;;9.20;99.90;;;;;;5007878;28;20500;-76
2023/03/30 03:23:36;;;;;;;8.40;4.70;;;9.20;99.90;;;;;;5007548;28;20464;-73
2023/03/30 03:26:02;;;;;;;8.10;6.03;;;9.20;99.90;;;;;;5004223;28;20409;-73
2023/03/30 03:28:30;;;;;;;6.93;5.60;;;9.10;99.90;;;;;;5007633;28;20656;-72
2023/03/30 03:30:57;;;;;;;7.60;5.87;;;9.20;99.90;;;;;;5004760;28;20876;-74
2023/03/30 03:33:23;;;;;;;7.40;5.27;;;9.20;99.90;;;;;;5006499;28;20426;-73
2023/03/30 03:35:52;;;;;;;7.70;5.53;;;9.20;99.90;;;;;;5004883;28;20422;-73
2023/03/30 03:38:20;;;;;;;8.33;5.40;;;9.20;99.90;;;;;;5001895;28;20434;-74
2023/03/30 03:40:50;;;;;;;6.50;5.60;;;9.20;99.90;;;;;;4993125;28;20434;-74
2023/03/30 03:43:16;;;;;;;9.07;5.73;;;9.20;99.90;;;;;;5006399;28;20479;-73
2023/03/30 03:45:43;;;;;;;6.47;5.33;;;9.20;99.90;;;;;;5008676;28;20768;-73
2023/03/30 03:48:09;;;;;;;9.73;6.20;;;9.20;99.90;;;;;;5002518;28;20439;-74
2023/03/30 03:50:35;;;;;;;7.90;7.10;;;9.20;99.90;;;;;;5001156;28;20444;-74
2023/03/30 03:53:00;;;;;;;8.70;5.80;;;9.20;99.90;;;;;;5002238;28;20197;-74
2023/03/30 03:55:28;;;;;;;7.40;5.80;;;9.20;99.90;;;;;;5007869;28;20423;-75
2023/03/30 03:57:53;;;;;;;7.63;5.73;;;9.20;99.90;;;;;;5009999;28;20268;-74
2023/03/30 04:00:19;;;;;;;7.33;6.30;;;9.20;99.90;;;;;;5001919;28;20888;-74
2023/03/30 04:02:45;;;;;;;10.20;7.30;;;9.20;99.90;;;;;;5009620;28;20286;-74
2023/03/30 04:05:11;;;;;;;8.00;5.83;;;9.20;99.90;;;;;;5004462;28;20406;-73
2023/03/30 04:07:37;;;;;;;7.40;6.13;;;9.10;99.90;;;;;;5002254;28;20223;-75
2023/03/30 04:10:06;;;;;;;8.37;5.93;;;9.20;99.90;;;;;;5008364;28;20212;-74
2023/03/30 04:12:32;;;;;;;8.60;5.87;;;9.20;99.90;;;;;;5006163;28;20416;-73
2023/03/30 04:14:57;;;;;;;8.10;5.50;;;9.20;99.90;;;;;;5009106;28;20414;-74
2023/03/30 04:17:23;;;;;;;6.80;5.30;;;9.20;99.90;;;;;;5001829;28;20175;-74
2023/03/30 04:19:52;;;;;;;8.73;6.63;;;9.20;99.90;;;;;;5009731;28;20186;-74
2023/03/30 04:22:19;;;;;;;10.03;6.53;;;9.20;99.90;;;;;;5003271;28;20189;-73
2023/03/30 04:24:45;;;;;;;5.83;5.20;;;9.20;99.90;;;;;;5012841;28;20559;-76
2023/03/30 04:27:15;;;;;;;6.93;5.57;;;9.20;99.90;;;;;;5010200;28;20829;-74
2023/03/30 04:29:43;;;;;;;7.57;6.20;;;9.10;99.90;;;;;;5008222;28;20246;-74
2023/03/30 04:32:11;;;;;;;7.23;6.10;;;9.10;99.90;;;;;;5008924;28;20505;-73
2023/03/30 04:34:41;;;;;;;9.90;5.57;;;9.20;99.90;;;;;;5012394;28;20492;-75
2023/03/30 04:37:08;;;;;;;10.10;7.20;;;9.20;99.90;;;;;;5010602;28;20404;-74
2023/03/30 04:39:34;;;;;;;7.80;5.93;;;9.20;99.90;;;;;;5005948;28;20408;-73
2023/03/30 04:42:02;;;;;;;6.60;5.23;;;9.20;99.90;;;;;;5013948;28;20517;-73
2023/03/30 04:44:29;;;;;;;7.80;6.17;;;9.20;99.90;;;;;;4992877;28;20674;-73
2023/03/30 04:46:55;;;;;;;6.80;5.57;;;9.20;99.90;;;;;;5006235;28;20442;-73
2023/03/30 04:49:21;;;;;;;6.50;5.83;;;9.20;99.90;;;;;;5009261;28;20415;-74
2023/03/30 04:51:46;;;;;;;8.77;6.17;;;9.30;99.90;;;;;;5002604;28;20533;-73
2023/03/30 04:54:12;;;;;;;9.60;6.30;;;9.20;99.90;;;;;;5008462;28;20175;-74
2023/03/30 04:56:37;;;;;;;7.23;5.87;;;9.20;99.90;;;;;;5008441;28;20176;-75
2023/03/30 04:59:03;;;;;;;8.40;6.27;;;9.30;99.90;;;;;;5004267;28;20660;-73
2023/03/30 05:01:29;;;;;;;7.90;6.90;;;9.20;99.90;;;;;;4998586;28;20180;-74
2023/03/30 05:03:55;;;;;;;8.73;6.90;;;9.30;99.90;;;;;;4976825;28;20214;-74
2023/03/30 05:06:21;;;;;;;9.10;6.90;;;9.20;99.90;;;;;;5004555;28;20267;-73
2023/03/30 05:08:46;;;;;;;8.90;6.40;;;9.20;99.90;;;;;;5001476;28;20964;-75
2023/03/30 05:11:12;;;;;;;7.93;6.13;;;9.20;99.90;;;;;;5008231;28;20258;-74
2023/03/30 05:13:39;;;;;;;7.80;5.70;;;9.20;99.90;;;;;;5004737;28;20202;-73
2023/03/30 05:16:05;;;;;;;7.37;5.43;;;9.30;99.90;;;;;;5002514;28;20540;-74
2023/03/30 05:18:31;;;;;;;6.73;6.00;;;9.30;99.90;;;;;;5003541;28;20526;-74
2023/03/30 05:20:58;;;;;;;7.20;6.10;;;9.30;99.90;;;;;;5003091;28;20472;-74
2023/03/30 05:23:24;;;;;;;6.87;5.30;;;9.40;99.90;;;;;;5006387;28;20203;-74
2023/03/30 05:25:50;;;;;;;7.00;5.63;;;9.40;99.90;;;;;;5009114;28;20462;-73
2023/03/30 05:28:16;;;;;;;7.03;5.17;;;9.50;99.90;;;;;;5003637;28;20414;-74
2023/03/30 05:30:43;;;;;;;6.13;4.93;;;9.50;99.90;;;;;;5010338;28;20419;-74
2023/03/30 05:33:08;;;;;;;7.90;6.20;;;9.50;99.90;;;;;;5003125;28;20240;-75
2023/03/30 05:35:36;;;;;;;9.77;5.73;;;9.50;99.90;;;;;;5009268;28;20443;-73
2023/03/30 05:38:02;;;;;;;13.30;6.03;;;9.50;99.90;;;;;;5003745;28;20588;-73
2023/03/30 05:40:29;;;;;;;6.70;5.37;;;9.60;99.90;;;;;;5004131;28;20411;-73
2023/03/30 05:42:55;;;;;;;6.53;5.30;;;9.60;99.90;;;;;;5008895;28;20466;-73
2023/03/30 05:45:20;;;;;;;6.37;5.30;;;9.60;99.90;;;;;;5003951;28;20418;-74
2023/03/30 05:47:46;;;;;;;7.70;6.17;;;9.60;99.90;;;;;;5003136;28;20183;-73
2023/03/30 05:50:12;;;;;;;6.57;4.97;;;9.60;99.90;;;;;;5003481;28;20248;-73
2023/03/30 05:52:37;;;;;;;8.70;5.77;;;9.50;99.90;;;;;;4997282;28;20194;-73
2023/03/30 05:55:03;;;;;;;11.37;5.30;;;9.60;99.90;;;;;;4994899;28;20185;-73
2023/03/30 05:57:29;;;;;;;6.13;5.53;;;9.50;99.90;;;;;;5005565;28;20172;-73
2023/03/30 05:59:54;;;;;;;8.43;4.50;;;9.60;99.90;;;;;;5005502;28;20506;-73
2023/03/30 06:02:20;;;;;;;11.00;5.53;;;9.60;99.90;;;;;;5006758;28;20198;-73
2023/03/30 06:04:46;;;;;;;11.87;5.50;;;9.60;99.90;;;;;;5005936;28;20656;-72
2023/03/30 06:07:11;;;;;;;5.73;4.87;;;9.60;99.90;;;;;;5004747;28;20169;-74
2023/03/30 06:09:37;;;;;;;7.13;4.80;;;9.60;99.90;;;;;;5006425;28;20275;-73
2023/03/30 06:12:03;;;;;;;5.67;4.93;;;9.70;99.90;;;;;;4996221;28;20199;-73
2023/03/30 06:14:29;;;;;;;9.90;5.80;;;9.60;99.90;;;;;;4994589;28;20231;-72
2023/03/30 06:16:55;;;;;;;8.97;5.37;;;9.70;99.90;;;;;;4996253;28;20414;-73
2023/03/30 06:19:21;;;;;;;8.83;5.50;;;9.80;99.90;;;;;;5002186;28;20528;-72
2023/03/30 06:21:47;;;;;;;6.80;4.53;;;9.90;99.90;;;;;;5005955;28;20439;-73
2023/03/30 06:24:12;;;;;;;6.00;4.60;;;10.00;99.90;;;;;;5005141;28;20283;-73
2023/03/30 06:26:39;;;;;;;26.17;14.90;;;10.10;99.90;;;;;;4986977;28;20180;-70
2023/03/30 06:29:05;;;;;;;34.47;20.47;;;10.20;99.90;;;;;;5005645;28;20169;-72
2023/03/30 06:31:31;;;;;;;13.17;5.93;;;10.60;99.90;;;;;;4999723;28;20783;-73
2023/03/30 06:33:56;;;;;;;6.90;5.37;;;10.70;99.90;;;;;;5009354;28;20182;-74
2023/03/30 06:36:22;;;;;;;6.93;4.67;;;10.70;99.90;;;;;;5006632;28;20204;-73
2023/03/30 06:38:48;;;;;;;7.50;4.70;;;10.80;99.90;;;;;;4999326;28;20200;-74
2023/03/30 06:41:14;;;;;;;4.37;3.83;;;10.90;99.90;;;;;;4994525;28;20206;-73
2023/03/30 06:43:40;;;;;;;4.73;3.90;;;10.90;99.90;;;;;;5011261;28;20529;-74
2023/03/30 06:46:07;;;;;;;7.23;5.20;;;10.90;99.90;;;;;;5016961;28;20180;-73
2023/03/30 06:48:33;;;;;;;7.90;4.30;;;11.10;99.90;;;;;;4991131;28;20566;-73
2023/03/30 06:50:59;;;;;;;6.60;3.80;;;11.10;99.90;;;;;;5001065;28;20938;-71
2023/03/30 06:53:25;;;;;;;7.63;4.70;;;10.90;99.90;;;;;;5003797;28;20428;-73
2023/03/30 06:55:56;;;;;;;6.80;4.70;;;10.80;99.90;;;;;;4999625;28;20259;-74
2023/03/30 06:58:22;;;;;;;5.90;4.60;;;10.90;99.90;;;;;;5005216;28;20466;-74
2023/03/30 07:00:48;;;;;;;9.33;5.40;;;10.90;99.90;;;;;;5005889;28;20882;-73
2023/03/30 07:03:17;;;;;;;5.33;4.77;;;10.80;99.90;;;;;;5006955;28;20538;-73
2023/03/30 07:05:50;;;;;;;5.83;4.37;;;10.80;99.90;;;;;;5001852;28;20173;-73
2023/03/30 07:08:20;;;;;;;5.07;4.67;;;11.10;99.90;;;;;;4987517;28;20465;-73
2023/03/30 07:10:46;;;;;;;4.63;4.10;;;11.20;99.90;;;;;;5002846;28;20419;-73
2023/03/30 07:13:12;;;;;;;4.93;4.30;;;11.30;99.90;;;;;;4995711;28;20474;-74
2023/03/30 07:15:38;;;;;;;5.67;4.53;;;11.40;99.90;;;;;;5002807;28;20434;-74
2023/03/30 07:18:03;;;;;;;5.40;4.70;;;12.00;99.90;;;;;;5001639;28;20593;-72
2023/03/30 07:20:29;;;;;;;3.90;3.50;;;12.30;99.90;;;;;;4984785;28;20586;-74
2023/03/30 07:22:55;;;;;;;5.47;3.30;;;12.90;99.90;;;;;;4998106;28;20347;-75
2023/03/30 07:25:21;;;;;;;4.37;3.97;;;13.50;99.90;;;;;;4993446;28;20494;-73
2023/03/30 07:27:46;;;;;;;4.60;3.60;;;13.30;99.90;;;;;;5005334;28;20194;-74
2023/03/30 07:30:13;;;;;;;4.50;4.10;;;13.70;99.90;;;;;;5000550;28;20543;-72
2023/03/30 07:32:39;;;;;;;4.30;3.90;;;13.20;99.90;;;;;;4995214;28;20208;-76
2023/03/30 07:35:07;;;;;;;5.60;3.80;;;13.90;99.90;;;;;;5000484;28;20425;-74
2023/03/30 07:37:34;;;;;;;4.90;4.23;;;14.10;99.90;;;;;;5015102;28;20412;-74
2023/03/30 07:40:00;;;;;;;6.40;3.80;;;14.60;99.90;;;;;;5010425;28;20534;-75
2023/03/30 07:42:25;;;;;;;4.57;4.10;;;14.70;99.90;;;;;;5008502;28;20481;-74
2023/03/30 07:44:51;;;;;;;6.70;4.10;;;14.70;99.90;;;;;;5002706;28;20204;-75
2023/03/30 07:47:16;;;;;;;4.07;3.57;;;15.20;99.90;;;;;;5008696;28;20649;-74
2023/03/30 07:49:42;;;;;;;6.37;4.10;;;15.80;99.90;;;;;;5013773;28;20221;-76
2023/03/30 07:52:08;;;;;;;3.90;3.57;;;15.30;99.90;;;;;;5008131;28;20184;-77
2023/03/30 07:54:33;;;;;;;4.93;3.63;;;15.80;99.90;;;;;;5019008;28;20186;-78
2023/03/30 07:56:59;;;;;;;4.00;3.27;;;15.60;99.90;;;;;;4988991;28;20266;-76
2023/03/30 07:59:25;;;;;;;4.30;3.17;;;15.30;99.90;;;;;;5008951;28;20255;-75
2023/03/30 08:01:53;;;;;;;5.50;3.80;;;16.60;99.90;;;;;;5008366;28;20193;-74
2023/03/30 08:04:20;;;;;;;5.10;4.07;;;16.10;99.90;;;;;;5013137;28;20446;-74
2023/03/30 08:06:48;;;;;;;6.83;3.97;;;16.60;99.90;;;;;;5006687;28;20854;-73
2023/03/30 08:09:14;;;;;;;5.43;3.40;;;16.40;99.90;;;;;;5006351;28;20897;-74
2023/03/30 08:11:40;;;;;;;5.77;3.47;;;16.70;99.90;;;;;;5007626;28;20513;-74
2023/03/30 08:14:06;;;;;;;5.90;3.93;;;16.70;99.90;;;;;;5007932;28;20439;-74
2023/03/30 08:16:31;;;;;;;3.57;3.27;;;17.00;99.90;;;;;;5009850;28;20502;-75
2023/03/30 08:18:57;;;;;;;5.30;3.00;;;17.10;99.90;;;;;;5007868;28;20191;-74
2023/03/30 08:21:25;;;;;;;4.33;3.10;;;16.80;99.90;;;;;;5006893;28;20591;-75
2023/03/30 08:23:56;;;;;;;5.33;3.50;;;16.60;99.90;;;;;;5007115;28;20206;-75
2023/03/30 08:26:22;;;;;;;5.17;3.37;;;16.90;99.90;;;;;;5014232;28;20415;-75
2023/03/30 08:28:48;;;;;;;3.40;3.10;;;17.50;99.90;;;;;;5007644;28;20441;-75
2023/03/30 08:31:16;;;;;;;3.43;3.13;;;17.40;99.90;;;;;;5001588;28;20363;-76
2023/03/30 08:33:43;;;;;;;5.50;2.97;;;18.10;99.90;;;;;;5009652;28;20270;-75
2023/03/30 08:36:11;;;;;;;7.63;3.80;;;18.30;99.90;;;;;;4998550;28;20435;-74
2023/03/30 08:38:38;;;;;;;3.70;3.10;;;17.30;99.90;;;;;;5006973;28;20425;-75
2023/03/30 08:41:18;;;;;;;4.20;3.10;;;17.10;99.90;;;;;;5007758;28;20817;-75
2023/03/30 08:44:05;;;;;;;8.13;2.77;;;17.70;99.90;;;;;;5008324;28;20543;-73
2023/03/30 08:46:32;;;;;;;2.83;2.40;;;17.90;99.90;;;;;;5008128;28;20481;-74
2023/03/30 08:49:00;;;;;;;4.17;3.00;;;18.10;99.90;;;;;;5013309;28;20412;-75
2023/03/30 08:51:30;;;;;;;4.13;3.17;;;18.30;99.90;;;;;;5001628;28;20426;-74
2023/03/30 08:54:00;;;;;;;4.23;2.70;;;17.90;99.90;;;;;;4997859;28;20790;-74
2023/03/30 08:56:29;;;;;;;4.77;2.67;;;17.80;99.90;;;;;;4989145;28;20450;-75
2023/03/30 08:59:01;;;;;;;4.80;3.80;;;17.80;99.90;;;;;;5003318;28;20411;-75
2023/03/30 09:01:29;;;;;;;3.07;2.60;;;17.30;99.90;;;;;;5001425;28;20404;-75
2023/03/30 09:04:36;;;;;;;4.47;2.57;;;17.40;99.90;;;;;;5001478;28;20463;-75
2023/03/30 09:07:11;;;;;;;4.73;2.40;;;17.70;99.90;;;;;;4946657;28;20984;-74
2023/03/30 09:09:45;;;;;;;5.33;1.97;;;17.80;99.90;;;;;;5008147;28;20869;-75
2023/03/30 09:12:33;;;;;;;6.67;2.50;;;17.80;99.90;;;;;;5003100;28;20931;-74
2023/03/30 09:15:23;;;;;;;2.60;2.40;;;17.40;99.90;;;;;;5047913;22;20575;-67
2023/03/30 09:18:00;;;;;;;27.63;17.03;;;17.70;99.90;;;;;;5049041;28;20405;-67
2023/03/30 09:20:31;;;;;;;15.80;9.90;;;17.90;99.90;;;;;;5048723;28;20399;-68
2023/03/30 09:23:01;;;;;;;11.30;6.73;;;17.80;99.90;;;;;;5052314;28;20412;-69
2023/03/30 09:25:33;;;;;;;6.47;3.77;;;17.80;99.90;;;;;;5052356;28;20441;-68
2023/03/30 09:28:30;;;;;;;26.57;17.77;;;17.80;99.90;;;;;;5052284;28;20411;-68
2023/03/30 09:31:10;;;;;;;97.87;58.23;;;17.80;99.90;;;;;;5052387;28;20443;-68
2023/03/30 09:34:01;;;;;;;51.00;34.87;;;17.70;99.90;;;;;;5052664;28;20417;-68
2023/03/30 09:37:02;;;;;;;7.13;4.67;;;17.70;99.90;;;;;;5047297;28;20422;-69
2023/03/30 09:39:28;;;;;;;4.43;2.67;;;17.70;99.90;;;;;;5044976;28;20424;-69
2023/03/30 09:42:01;;;;;;;4.23;2.57;;;17.60;99.90;;;;;;5054732;28;20417;-68
2023/03/30 09:44:50;;;;;;;11.53;9.10;;;17.70;99.90;;;;;;5053823;28;20473;-68
2023/03/30 09:47:22;;;;;;;5.33;2.73;;;17.60;99.90;;;;;;5052154;28;20402;-70
2023/03/30 09:49:47;;;;;;;34.13;21.07;;;17.40;99.90;;;;;;5052790;28;20417;-69
2023/03/30 09:52:20;;;;;;;8.33;5.70;;;17.30;99.90;;;;;;5053140;28;20408;-68
2023/03/30 09:54:46;;;;;;;4.30;2.47;;;17.70;99.90;;;;;;5051918;28;20540;-68
2023/03/30 09:57:29;;;;;;;43.87;25.53;;;17.60;99.90;;;;;;5048448;28;20402;-69
2023/03/30 09:59:57;;;;;;;43.03;24.17;;;17.80;99.90;;;;;;5054954;28;20593;-68
2023/03/30 10:02:26;;;;;;;13.37;8.50;;;18.10;99.90;;;;;;5051705;28;20471;-69
2023/03/30 10:04:51;;;;;;;3.80;2.27;;;17.90;99.90;;;;;;5051379;28;20467;-70
2023/03/30 10:07:28;;;;;;;3.60;2.50;;;17.60;99.90;;;;;;5051438;28;20413;-68
2023/03/30 10:09:56;;;;;;;14.43;6.63;;;17.40;99.90;;;;;;5051460;28;20257;-68
2023/03/30 10:12:25;;;;;;;5.37;3.07;;;17.70;99.90;;;;;;5051305;28;20408;-68
2023/03/30 10:14:55;;;;;;;19.67;3.10;;;17.30;99.90;;;;;;5051504;28;20455;-69
2023/03/30 10:17:25;;;;;;;3.00;2.70;;;17.30;99.90;;;;;;5033818;28;20794;-67
2023/03/30 10:20:28;;;;;;;6.30;4.17;;;17.00;99.90;;;;;;5052530;28;20413;-67
2023/03/30 10:23:00;;;;;;;28.70;17.20;;;16.90;99.90;;;;;;5051245;28;20823;-68
2023/03/30 10:25:30;;;;;;;5.73;2.77;;;17.10;99.90;;;;;;5051697;28;20923;-68
2023/03/30 10:28:00;;;;;;;9.57;5.30;;;17.00;99.90;;;;;;5051181;28;20421;-68
2023/03/30 10:30:27;;;;;;;5.20;4.20;;;16.80;99.90;;;;;;5051175;28;20412;-68
2023/03/30 10:32:56;;;;;;;7.17;4.60;;;17.00;99.90;;;;;;5051505;28;20420;-68
2023/03/30 10:35:31;;;;;;;4.00;2.70;;;16.90;99.90;;;;;;5050991;28;20439;-68
2023/03/30 10:38:00;;;;;;;5.00;2.80;;;16.90;99.90;;;;;;5050919;28;20437;-68
2023/03/30 10:40:33;;;;;;;3.43;2.30;;;17.00;99.90;;;;;;5051321;28;20769;-69
2023/03/30 10:43:00;;;;;;;4.40;2.70;;;17.00;99.90;;;;;;5051090;28;20512;-70
2023/03/30 10:45:36;;;;;;;4.80;2.27;;;17.00;99.90;;;;;;5051237;28;20528;-68
2023/03/30 10:48:20;;;;;;;19.57;10.43;;;17.00;99.90;;;;;;5048769;28;20467;-68
2023/03/30 10:50:53;;;;;;;16.97;9.60;;;17.30;99.90;;;;;;5051355;28;20430;-68
2023/03/30 10:53:25;;;;;;;9.50;3.40;;;17.20;99.90;;;;;;5051082;28;20419;-68
2023/03/30 10:55:54;;;;;;;4.07;2.93;;;17.30;99.90;;;;;;5051290;28;20430;-69
2023/03/30 10:58:57;;;;;;;4.40;2.50;;;17.50;99.90;;;;;;5051167;28;20717;-68
2023/03/30 11:01:41;;;;;;;5.80;2.40;;;17.50;99.90;;;;;;5048768;28;20420;-68
2023/03/30 11:04:17;;;;;;;21.47;11.07;;;17.70;99.90;;;;;;5054771;28;20905;-67
2023/03/30 11:06:44;;;;;;;4.73;3.80;;;18.00;99.90;;;;;;5055299;28;20424;-68
2023/03/30 11:09:16;;;;;;;19.33;10.80;;;17.90;99.90;;;;;;5055490;28;20435;-68
2023/03/30 11:11:55;;;;;;;6.23;2.60;;;18.30;99.90;;;;;;5055641;28;20770;-68
2023/03/30 11:14:29;;;;;;;9.70;3.20;;;18.00;99.90;;;;;;5047659;28;20442;-68
2023/03/30 11:17:00;;;;;;;6.47;3.90;;;17.80;99.90;;;;;;5054998;28;20401;-67
2023/03/30 11:19:30;;;;;;;9.80;2.83;;;17.70;99.90;;;;;;5054900;28;20413;-69
2023/03/30 11:22:26;;;;;;;9.00;5.63;;;17.80;99.90;;;;;;5054871;28;20416;-68
2023/03/30 11:24:56;;;;;;;46.30;28.30;;;17.50;99.90;;;;;;5051783;28;20486;-69
2023/03/30 11:27:30;;;;;;;5.53;2.63;;;17.80;99.90;;;;;;5054954;28;20917;-68
2023/03/30 11:30:07;;;;;;;11.20;7.53;;;18.40;99.90;;;;;;5057111;28;20887;-69
2023/03/30 11:33:00;;;;;;;18.00;10.50;;;17.80;99.90;;;;;;5058973;28;20518;-68
2023/03/30 11:35:52;;;;;;;16.60;11.30;;;17.90;99.90;;;;;;5048830;28;20785;-68
2023/03/30 11:38:24;;;;;;;6.13;3.97;;;17.80;99.90;;;;;;5041005;28;20421;-67
2023/03/30 11:41:14;;;;;;;6.63;2.87;;;18.10;99.90;;;;;;5054544;28;20414;-70
2023/03/30 11:43:41;;;;;;;16.00;9.53;;;17.70;99.90;;;;;;5050109;28;20452;-68
2023/03/30 11:46:21;;;;;;;9.50;7.23;;;17.90;99.90;;;;;;5054214;28;20438;-69
2023/03/30 11:49:25;;;;;;;8.30;5.23;;;17.70;99.90;;;;;;5051326;28;20400;-68
2023/03/30 11:52:05;;;;;;;4.70;2.77;;;18.10;99.90;;;;;;5054127;28;20849;-66
2023/03/30 11:54:57;;;;;;;10.43;7.00;;;17.90;99.90;;;;;;5054245;28;20432;-68
2023/03/30 11:57:37;;;;;;;6.93;2.33;;;18.30;99.90;;;;;;5047623;28;20418;-68
2023/03/30 12:00:31;;;;;;;16.33;9.57;;;18.10;99.90;;;;;;5053828;28;20413;-69
2023/03/30 12:03:27;;;;;;;21.67;13.17;;;18.20;99.90;;;;;;5054253;28;20409;-69
2023/03/30 12:06:02;;;;;;;4.30;2.87;;;18.20;99.90;;;;;;5051028;28;20467;-68
2023/03/30 12:08:42;;;;;;;12.17;5.40;;;18.20;99.90;;;;;;5053806;28;20408;-68
2023/03/30 12:11:15;;;;;;;91.20;51.57;;;18.50;99.90;;;;;;5053219;28;20403;-69
2023/03/30 12:13:41;;;;;;;5.90;3.93;;;18.70;99.90;;;;;;5054358;28;21011;-68
2023/03/30 12:16:13;;;;;;;55.53;33.13;;;18.80;99.90;;;;;;5055459;28;20545;-68
2023/03/30 12:18:56;;;;;;;12.10;5.77;;;18.60;99.90;;;;;;5043126;28;20180;-67
2023/03/30 12:21:42;;;;;;;9.33;4.30;;;18.50;99.90;;;;;;5046839;28;20589;-68
2023/03/30 12:24:22;;;;;;;18.60;10.83;;;18.50;99.90;;;;;;5053663;28;20459;-68
2023/03/30 12:26:48;;;;;;;16.77;6.67;;;18.80;99.90;;;;;;5050610;28;20416;-66
2023/03/30 12:29:18;;;;;;;9.90;6.40;;;19.00;99.90;;;;;;5053562;28;20920;-68
2023/03/30 12:31:57;;;;;;;4.20;3.00;;;18.80;99.90;;;;;;5050305;28;20434;-68
2023/03/30 12:34:26;;;;;;;6.83;3.10;;;18.90;99.90;;;;;;5048070;28;20911;-67
2023/03/30 12:37:04;;;;;;;7.50;2.17;;;18.90;99.90;;;;;;5053675;28;20427;-68
2023/03/30 12:39:47;;;;;;;7.77;4.00;;;18.80;99.90;;;;;;5059732;28;20405;-68
2023/03/30 12:42:25;;;;;;;3.57;1.93;;;18.70;99.90;;;;;;5053835;28;20413;-68
2023/03/30 12:45:09;;;;;;;8.47;4.13;;;18.50;99.90;;;;;;5059691;28;20464;-68
2023/03/30 12:47:34;;;;;;;6.30;4.43;;;18.50;99.90;;;;;;5055615;28;20468;-68
2023/03/30 12:50:24;;;;;;;5.80;3.20;;;18.70;99.90;;;;;;5054005;28;20403;-68
2023/03/30 12:53:17;;;;;;;6.00;3.60;;;19.10;99.90;;;;;;5053554;28;20179;-68
2023/03/30 12:55:46;;;;;;;3.93;1.90;;;19.60;99.90;;;;;;5051038;28;20789;-69
2023/03/30 12:58:46;;;;;;;1.93;1.80;;;19.30;99.90;;;;;;5048133;28;20422;-68
2023/03/30 13:01:29;;;;;;;5.60;2.30;;;18.90;99.90;;;;;;5044970;28;20410;-68
2023/03/30 13:03:59;;;;;;;4.13;2.03;;;19.00;99.90;;;;;;5052986;28;20448;-68
2023/03/30 13:06:30;;;;;;;2.73;2.10;;;18.90;99.90;;;;;;5053093;28;20402;-69
2023/03/30 13:09:22;;;;;;;5.27;2.30;;;18.90;99.90;;;;;;5052741;28;20467;-69
2023/03/30 13:11:48;;;;;;;5.83;1.83;;;19.20;99.90;;;;;;5052835;28;20444;-69
2023/03/30 13:14:26;;;;;;;4.27;2.10;;;19.00;99.90;;;;;;5052589;28;20415;-69